Time;durP1;ratioP1;P1;durP2;ratioP2;P2;SDS_P1;SDS_P2;PMS_P1;PMS_P2;Temp;Humidity;BMP_temperature;BMP_pressure;BME280_temperature;BME280_humidity;BME280_pressure;Samples;Min_cycle;Max_cycle;Signal;HPM_P1;HPM_P2
2021/03/31 00:00:26;;;;;;;37.50;14.27;;;;;;;5.99;46.91;94881.78;5089588;28;20027;-74
2021/03/31 00:02:54;;;;;;;35.00;15.13;;;;;;;6.02;47.09;94882.06;5089622;28;20723;-74
2021/03/31 00:05:19;;;;;;;35.67;14.80;;;;;;;6.09;47.68;94883.69;5090824;28;20028;-74
2021/03/31 00:07:45;;;;;;;32.58;14.27;;;;;;;6.04;48.03;94873.84;5090889;28;20368;-74
2021/03/31 00:10:17;;;;;;;31.40;15.40;;;;;;;6.07;47.84;94878.66;5089346;28;20031;-74
2021/03/31 00:12:42;;;;;;;;;;;;;;;6.13;47.68;94882.91;5090936;28;20051;-74
2021/03/31 00:15:08;;;;;;;30.30;13.50;;;;;;;6.10;47.40;94872.81;5089419;28;19963;-74
2021/03/31 00:17:34;;;;;;;33.90;14.25;;;;;;;6.12;46.89;94881.28;5089067;28;20036;-74
2021/03/31 00:19:59;;;;;;;34.08;14.25;;;;;;;6.10;47.34;94879.97;5089113;28;20045;-74
2021/03/31 00:22:25;;;;;;;34.72;14.13;;;;;;;6.09;46.98;94873.88;5090505;28;20024;-74
2021/03/31 00:24:50;;;;;;;29.55;13.77;;;;;;;6.14;47.01;94875.75;5089101;28;20023;-74
2021/03/31 00:27:16;;;;;;;28.00;13.48;;;;;;;6.14;46.70;94871.25;5090582;28;20034;-74
2021/03/31 00:29:41;;;;;;;30.65;13.52;;;;;;;6.18;46.34;94866.22;5088634;28;20027;-74
2021/03/31 00:32:07;;;;;;;32.55;14.57;;;;;;;6.17;46.30;94870.75;5088925;28;20399;-74
2021/03/31 00:34:32;;;;;;;31.55;14.27;;;;;;;6.09;46.50;94868.59;5088197;28;20580;-74
2021/03/31 00:36:58;;;;;;;30.48;13.55;;;;;;;6.07;46.81;94868.06;5089029;28;20031;-74
2021/03/31 00:39:23;;;;;;;36.97;13.75;;;;;;;6.07;46.82;94868.06;5089117;28;20032;-74
2021/03/31 00:41:49;;;;;;;24.63;13.20;;;;;;;6.11;47.06;94865.69;5090003;28;20023;-74
2021/03/31 00:44:19;;;;;;;24.90;12.77;;;;;;;6.04;47.12;94863.28;5090219;28;20089;-74
2021/03/31 00:46:44;;;;;;;29.27;12.50;;;;;;;5.94;47.44;94861.38;5089311;28;20077;-74
2021/03/31 00:49:10;;;;;;;30.60;12.60;;;;;;;5.91;47.85;94859.22;5088512;28;20475;-74
2021/03/31 00:51:35;;;;;;;27.77;12.88;;;;;;;5.82;48.03;94861.59;5087998;28;20035;-74
2021/03/31 00:54:01;;;;;;;33.85;13.02;;;;;;;5.82;48.76;94860.75;5090059;28;20031;-73
2021/03/31 00:56:26;;;;;;;25.95;12.98;;;;;;;5.78;48.80;94855.22;5089009;28;20494;-73
2021/03/31 00:58:52;;;;;;;25.15;12.65;;;;;;;5.69;48.78;94851.47;5088989;28;20487;-73
2021/03/31 01:01:17;;;;;;;30.23;12.85;;;;;;;5.64;48.83;94851.44;5089908;28;20058;-73
2021/03/31 01:03:43;;;;;;;26.20;10.55;;;;;;;5.61;49.13;94857.25;5088278;28;20336;-73
2021/03/31 01:06:08;;;;;;;23.55;9.90;;;;;;;5.56;48.94;94854.59;5089958;28;20103;-73
2021/03/31 01:08:34;;;;;;;27.08;9.45;;;;;;;5.52;48.99;94848.22;5088602;28;20118;-73
2021/03/31 01:10:59;;;;;;;22.17;9.23;;;;;;;5.51;48.66;94846.59;5089673;28;20030;-73
2021/03/31 01:13:47;;;;;;;22.48;8.73;;;;;;;5.43;48.35;94843.41;5089896;28;20191;-73
2021/03/31 01:16:53;;;;;;;15.02;7.10;;;;;;;5.41;47.96;94847.34;5089677;28;20077;-73
2021/03/31 01:19:41;;;;;;;16.10;8.25;;;;;;;5.37;48.91;94847.09;5088027;28;20040;-73
2021/03/31 01:22:35;;;;;;;17.13;9.23;;;;;;;5.35;47.85;94843.06;5088165;28;20532;-74
2021/03/31 01:25:44;;;;;;;17.88;9.13;;;;;;;5.28;48.07;94848.59;5053036;28;20036;-73
2021/03/31 01:28:38;;;;;;;20.73;9.82;;;;;;;5.26;48.42;94849.91;5089318;28;20062;-73
2021/03/31 01:31:31;;;;;;;15.13;7.90;;;;;;;5.28;48.23;94850.47;5088192;28;20035;-73
2021/03/31 01:34:11;;;;;;;19.20;8.90;;;;;;;5.26;48.06;94845.41;5088122;28;20040;-73
2021/03/31 01:36:37;;;;;;;21.35;8.68;;;;;;;5.24;47.97;94847.50;5089716;28;20028;-73
2021/03/31 01:39:09;;;;;;;21.52;9.43;;;;;;;5.21;47.76;94842.72;5088039;28;20445;-73
2021/03/31 01:41:37;;;;;;;19.00;8.40;;;;;;;5.17;48.09;94846.94;5089593;28;20123;-73
2021/03/31 01:44:07;;;;;;;17.25;8.82;;;;;;;5.13;48.36;94849.31;5089381;28;20059;-73
2021/03/31 01:46:36;;;;;;;20.77;8.23;;;;;;;5.07;48.47;94852.97;5088311;28;20633;-73
2021/03/31 01:49:03;;;;;;;26.52;12.10;;;;;;;5.05;49.13;94852.41;5087900;28;20028;-73
2021/03/31 01:51:30;;;;;;;23.83;11.75;;;;;;;5.07;48.93;94857.44;5088432;28;20115;-73
2021/03/31 01:53:57;;;;;;;28.90;13.98;;;;;;;5.02;49.38;94837.84;5088135;28;20070;-73
2021/03/31 01:56:25;;;;;;;28.48;12.88;;;;;;;5.02;49.43;94855.56;5088416;28;20478;-73
2021/03/31 01:58:52;;;;;;;25.98;10.90;;;;;;;5.02;49.61;94855.56;5088127;28;20482;-73
2021/03/31 02:01:20;;;;;;;22.48;10.32;;;;;;;4.97;49.93;94852.88;5087935;28;20016;-73
2021/03/31 02:03:49;;;;;;;23.15;10.48;;;;;;;4.91;50.25;94848.63;5089585;28;20438;-73
2021/03/31 02:06:15;;;;;;;25.00;9.88;;;;;;;4.87;50.17;94850.97;5087637;28;20084;-73
2021/03/31 02:08:41;;;;;;;17.83;8.55;;;;;;;4.83;50.21;94850.66;5090198;28;20110;-73
2021/03/31 02:11:08;;;;;;;18.45;8.32;;;;;;;4.78;50.53;94850.63;5091594;28;20040;-73
2021/03/31 02:13:33;;;;;;;20.63;8.05;;;;;;;4.79;50.45;94851.44;5091669;28;20052;-73
2021/03/31 02:16:01;;;;;;;13.90;7.68;;;;;;;4.77;50.59;94829.75;5091761;28;20438;-73
2021/03/31 02:18:30;;;;;;;15.13;8.38;;;;;;;4.75;50.79;94837.91;5092785;28;20049;-73
2021/03/31 02:20:56;;;;;;;20.95;9.25;;;;;;;4.76;50.45;94841.34;5091555;28;20097;-73
2021/03/31 02:23:23;;;;;;;16.00;8.98;;;;;;;4.81;50.68;94836.91;5092735;28;20422;-74
2021/03/31 02:25:48;;;;;;;19.88;8.40;;;;;;;4.77;50.50;94838.47;5091674;28;20024;-75
2021/03/31 02:28:14;;;;;;;20.40;8.77;;;;;;;4.75;50.39;94845.06;5091311;28;20504;-74
2021/03/31 02:30:40;;;;;;;15.65;8.75;;;;;;;4.74;50.27;94843.44;5091560;28;20020;-73
2021/03/31 02:33:09;;;;;;;17.73;8.27;;;;;;;4.70;50.07;94845.81;5092148;28;20112;-73
2021/03/31 02:35:35;;;;;;;16.70;7.63;;;;;;;4.70;49.85;94843.19;5092594;28;20063;-73
2021/03/31 02:38:05;;;;;;;16.90;8.20;;;;;;;4.69;50.15;94841.56;5092936;28;20020;-73
2021/03/31 02:40:31;;;;;;;16.20;8.43;;;;;;;4.77;50.23;94835.03;5092427;28;20092;-73
2021/03/31 02:42:58;;;;;;;23.33;9.23;;;;;;;4.78;50.58;94829.50;5091254;28;20016;-74
2021/03/31 02:45:25;;;;;;;20.77;8.52;;;;;;;4.72;49.14;94841.09;5090790;28;20399;-74
2021/03/31 02:47:52;;;;;;;18.92;8.07;;;;;;;4.65;49.59;94837.84;5090867;28;20038;-74
2021/03/31 02:50:22;;;;;;;24.83;8.60;;;;;;;4.64;49.55;94841.53;5092375;28;20038;-74
2021/03/31 02:52:50;;;;;;;26.13;10.65;;;;;;;4.58;50.26;94855.72;5092228;28;20085;-73
2021/03/31 02:55:17;;;;;;;21.98;11.43;;;;;;;4.42;50.74;94855.59;5091222;28;20036;-73
2021/03/31 02:57:43;;;;;;;27.58;11.02;;;;;;;4.25;51.81;94846.97;5090734;28;20115;-73
2021/03/31 03:00:10;;;;;;;25.65;11.43;;;;;;;4.15;52.28;94847.69;5090767;28;20063;-73
2021/03/31 03:02:37;;;;;;;28.75;10.88;;;;;;;3.93;52.81;94846.88;5090502;28;20020;-73
2021/03/31 03:05:05;;;;;;;29.52;12.00;;;;;;;3.82;53.68;94844.13;5092163;28;20434;-73
2021/03/31 03:07:33;;;;;;;27.45;12.43;;;;;;;3.71;54.03;94847.69;5073776;28;20051;-73
2021/03/31 03:10:00;;;;;;;29.45;11.98;;;;;;;3.67;54.10;94846.59;5090814;28;20478;-73
2021/03/31 03:12:27;;;;;;;27.55;12.18;;;;;;;3.64;54.13;94852.34;5090420;28;20028;-73
2021/03/31 03:14:53;;;;;;;23.17;11.70;;;;;;;3.67;53.84;94836.06;5090248;28;20032;-73
2021/03/31 03:17:20;;;;;;;26.05;12.43;;;;;;;3.74;54.10;94841.94;5091900;28;20024;-73
2021/03/31 03:19:46;;;;;;;24.48;11.93;;;;;;;3.71;54.00;94850.34;5089973;28;20360;-73
2021/03/31 03:22:13;;;;;;;28.48;12.68;;;;;;;3.69;54.59;94835.81;5089958;28;20035;-73
2021/03/31 03:24:42;;;;;;;24.58;12.20;;;;;;;3.74;54.49;94841.13;5090429;28;20414;-73
2021/03/31 03:27:12;;;;;;;25.65;11.35;;;;;;;3.75;54.39;94843.53;5091847;28;20433;-73
2021/03/31 03:29:39;;;;;;;30.63;13.43;;;;;;;3.81;54.80;94842.56;5090339;28;20055;-73
2021/03/31 03:32:05;;;;;;;22.52;12.57;;;;;;;3.82;54.61;94840.69;5090139;28;20102;-73
2021/03/31 03:34:31;;;;;;;21.92;11.43;;;;;;;3.86;54.50;94838.38;5091479;28;20043;-73
2021/03/31 03:36:56;;;;;;;28.52;13.93;;;;;;;3.88;54.42;94852.13;5090056;28;20383;-73
2021/03/31 03:39:22;;;;;;;24.13;12.43;;;;;;;3.89;54.43;94840.50;5090115;28;20106;-73
2021/03/31 03:41:48;;;;;;;33.05;12.73;;;;;;;3.91;54.20;94841.88;5091314;28;20553;-73
2021/03/31 03:44:15;;;;;;;28.52;11.63;;;;;;;3.96;54.15;94844.56;5089632;28;20052;-73
2021/03/31 03:46:43;;;;;;;27.35;12.20;;;;;;;3.95;53.91;94842.19;5091432;28;20030;-73
2021/03/31 03:49:08;;;;;;;32.60;13.75;;;;;;;3.87;54.05;94839.97;5089624;28;20032;-73
2021/03/31 03:51:34;;;;;;;26.02;11.98;;;;;;;3.93;53.89;94834.50;5091333;28;20068;-73
2021/03/31 03:54:07;;;;;;;25.35;12.82;;;;;;;3.95;53.55;94836.91;5090979;28;20042;-73
2021/03/31 03:56:32;;;;;;;23.05;11.80;;;;;;;3.90;53.89;94832.34;5089815;28;20072;-73
2021/03/31 03:59:14;;;;;;;30.58;12.95;;;;;;;3.97;53.65;94827.69;5089629;28;20499;-73
2021/03/31 04:01:40;;;;;;;23.55;12.45;;;;;;;3.94;53.99;94820.25;5085576;28;20536;-73
2021/03/31 04:04:05;;;;;;;26.38;12.80;;;;;;;3.89;54.23;94817.59;5090892;28;20028;-73
2021/03/31 04:06:31;;;;;;;26.98;12.00;;;;;;;3.86;54.51;94822.56;5090806;28;20032;-73
2021/03/31 04:08:56;;;;;;;24.05;12.63;;;;;;;3.85;54.71;94831.50;5090962;28;20035;-73
2021/03/31 04:11:21;;;;;;;30.13;12.73;;;;;;;3.86;54.90;94835.75;5089305;28;20036;-73
2021/03/31 04:13:47;;;;;;;34.65;13.45;;;;;;;3.80;55.16;94840.16;5084697;28;20028;-73
2021/03/31 04:16:13;;;;;;;33.28;13.70;;;;;;;3.80;55.02;94851.50;5088554;28;20055;-74
2021/03/31 04:18:40;;;;;;;36.63;14.68;;;;;;;3.81;55.02;94857.59;5090065;28;20030;-72
2021/03/31 04:21:07;;;;;;;41.88;15.27;;;;;;;3.84;54.68;94851.00;5088308;28;20047;-73
2021/03/31 04:23:33;;;;;;;36.58;15.00;;;;;;;3.77;55.09;94861.75;5086545;28;20079;-73
2021/03/31 04:25:59;;;;;;;45.60;15.15;;;;;;;3.74;54.79;94852.47;5088638;28;20027;-73
2021/03/31 04:28:27;;;;;;;39.05;15.52;;;;;;;3.68;55.23;94863.22;5087889;28;20110;-70
2021/03/31 04:30:54;;;;;;;34.28;16.27;;;;;;;3.63;55.62;94860.53;5085983;28;20024;-73
2021/03/31 04:33:22;;;;;;;36.90;15.88;;;;;;;3.64;55.83;94864.75;5087449;28;20509;-73
2021/03/31 04:35:47;;;;;;;30.95;15.48;;;;;;;3.63;56.41;94856.03;5089620;28;20047;-73
2021/03/31 04:38:14;;;;;;;39.22;18.48;;;;;;;3.65;56.25;94853.16;5089948;28;20120;-73
2021/03/31 04:40:49;;;;;;;45.92;18.77;;;;;;;3.65;56.39;94867.13;5089796;28;20012;-73
2021/03/31 04:43:14;;;;;;;37.70;17.30;;;;;;;3.68;56.49;94861.38;5088375;28;20012;-73
2021/03/31 04:45:39;;;;;;;38.80;16.45;;;;;;;3.73;56.65;94864.06;5089921;28;20032;-73
2021/03/31 04:48:05;;;;;;;36.97;16.35;;;;;;;3.76;56.50;94866.22;5088265;28;20387;-73
2021/03/31 04:50:30;;;;;;;34.60;16.30;;;;;;;3.75;56.43;94867.25;5088476;28;20103;-73
2021/03/31 04:52:56;;;;;;;32.92;15.27;;;;;;;3.82;56.67;94867.06;5087891;28;20402;-73
2021/03/31 04:55:21;;;;;;;38.33;16.95;;;;;;;3.87;56.37;94880.34;5088323;28;20024;-73
2021/03/31 04:57:47;;;;;;;45.47;15.85;;;;;;;3.93;56.49;94883.81;5088365;28;20065;-73
2021/03/31 05:00:13;;;;;;;43.40;17.15;;;;;;;4.00;56.62;94874.69;5088450;28;20035;-73
2021/03/31 05:02:38;;;;;;;41.72;17.27;;;;;;;4.09;55.86;94859.22;5089699;28;20035;-75
2021/03/31 05:05:04;;;;;;;40.95;18.70;;;;;;;4.14;55.30;94867.19;5089415;28;20570;-77
2021/03/31 05:07:29;;;;;;;49.30;19.85;;;;;;;4.19;55.04;94859.34;5088552;28;20028;-75
2021/03/31 05:09:55;;;;;;;64.63;18.67;;;;;;;4.23;55.49;94854.34;5089835;28;20032;-75
2021/03/31 05:12:20;;;;;;;45.20;18.92;;;;;;;4.29;55.61;94855.97;5088942;28;21811;-74
2021/03/31 05:14:45;;;;;;;37.70;17.55;;;;;;;4.36;55.83;94853.94;5090042;28;20446;-75
2021/03/31 05:17:11;;;;;;;48.53;17.50;;;;;;;4.47;55.91;94857.47;5089139;28;20038;-75
2021/03/31 05:19:36;;;;;;;43.03;15.90;;;;;;;4.59;55.11;94858.13;5088870;28;20043;-74
2021/03/31 05:22:05;;;;;;;40.08;15.32;;;;;;;4.70;54.38;94859.03;5089483;28;20024;-75
2021/03/31 05:24:30;;;;;;;35.22;13.68;;;;;;;4.84;53.66;94859.38;5090643;28;20095;-75
2021/03/31 05:26:56;;;;;;;29.73;14.65;;;;;;;4.86;53.67;94859.13;5090566;28;20107;-75
2021/03/31 05:29:21;;;;;;;40.45;16.40;;;;;;;4.87;53.94;94858.09;5088495;28;20028;-74
2021/03/31 05:31:47;;;;;;;33.75;17.75;;;;;;;4.87;53.83;94852.81;5088547;28;20060;-75
2021/03/31 05:34:12;;;;;;;38.92;18.10;;;;;;;4.99;53.75;94856.88;5088204;28;20116;-75
2021/03/31 05:36:37;;;;;;;46.67;20.15;;;;;;;5.07;53.94;94868.00;5089235;28;20028;-74
2021/03/31 05:39:03;;;;;;;48.83;19.13;;;;;;;5.13;53.95;94865.16;5087748;28;20501;-75
2021/03/31 05:41:29;;;;;;;79.00;22.50;;;;;;;5.16;54.42;94871.78;5087285;28;20114;-74
2021/03/31 05:43:55;;;;;;;48.22;19.35;;;;;;;5.13;54.39;94866.97;5090014;28;20092;-75
2021/03/31 05:46:21;;;;;;;43.40;18.00;;;;;;;5.14;54.21;94874.66;5092710;28;20028;-74
2021/03/31 05:48:47;;;;;;;40.63;17.40;;;;;;;5.19;52.98;94871.25;5091310;28;20027;-76
2021/03/31 05:51:12;;;;;;;41.47;17.05;;;;;;;5.17;53.69;94879.47;5091423;28;20028;-76
2021/03/31 05:53:38;;;;;;;47.72;19.23;;;;;;;5.20;53.73;94872.88;5092602;28;20035;-76
2021/03/31 05:56:07;;;;;;;33.88;16.05;;;;;;;5.25;53.76;94870.28;5091194;28;20528;-76
2021/03/31 05:58:33;;;;;;;42.17;18.52;;;;;;;5.20;53.94;94872.88;5091315;28;20300;-76
2021/03/31 06:01:01;;;;;;;50.80;18.73;;;;;;;5.25;53.66;94867.63;5092548;28;20108;-77
2021/03/31 06:03:27;;;;;;;57.53;20.52;;;;;;;5.27;53.86;94862.88;5091186;28;20024;-76
2021/03/31 06:05:55;;;;;;;40.17;18.40;;;;;;;5.37;54.31;94860.31;5090954;28;20373;-76
2021/03/31 06:08:20;;;;;;;45.40;17.58;;;;;;;5.49;54.22;94864.56;5091194;28;20103;-76
2021/03/31 06:10:46;;;;;;;63.95;18.77;;;;;;;5.64;53.96;94859.38;5092230;28;20509;-76
2021/03/31 06:13:13;;;;;;;55.75;20.77;;;;;;;5.80;53.60;94870.81;5091104;28;20131;-76
2021/03/31 06:15:41;;;;;;;55.33;20.77;;;;;;;5.95;53.67;94870.91;5090785;28;20089;-76
2021/03/31 06:18:07;;;;;;;55.78;18.63;;;;;;;6.13;53.44;94867.03;5090885;28;20039;-76
2021/03/31 06:20:48;;;;;;;54.88;19.75;;;;;;;6.29;53.44;94857.28;5090937;28;20044;-77
2021/03/31 06:23:37;;;;;;;50.72;19.48;;;;;;;6.49;52.73;94861.78;5090838;28;20056;-77
2021/03/31 06:26:39;;;;;;;62.70;20.70;;;;;;;6.73;52.47;94866.59;5090725;28;20112;-78
2021/03/31 06:29:07;;;;;;;64.68;17.50;;;;;;;6.94;52.04;94860.28;5090838;28;20031;-77
2021/03/31 06:31:35;;;;;;;49.40;17.88;;;;;;;7.08;51.33;94863.16;5090886;28;20686;-77
2021/03/31 06:34:14;;;;;;;60.15;20.08;;;;;;;7.14;51.46;94856.78;5091719;28;20044;-79
2021/03/31 06:36:46;;;;;;;63.63;20.48;;;;;;;7.29;51.21;94853.34;5090343;28;20051;-77
2021/03/31 06:39:25;;;;;;;49.28;18.17;;;;;;;7.47;50.44;94862.59;5091321;28;20047;-77
2021/03/31 06:41:53;;;;;;;35.03;16.17;;;;;;;7.61;49.32;94860.16;5091247;28;20028;-79
2021/03/31 06:49:42;;;;;;;25.70;12.02;;;;;;;8.10;46.43;94864.81;5091270;28;19965;-77
2021/03/31 06:52:11;;;;;;;24.55;10.80;;;;;;;8.29;45.21;94854.34;5090055;28;20027;-76
2021/03/31 06:54:42;;;;;;;28.73;10.70;;;;;;;8.46;43.73;94854.00;5089597;28;20494;-76
2021/03/31 06:57:08;;;;;;;24.67;10.77;;;;;;;8.64;43.86;94861.34;5089600;28;20027;-75
2021/03/31 06:59:33;;;;;;;21.80;11.10;;;;;;;8.86;42.95;94857.47;5089955;28;20019;-76
2021/03/31 07:02:01;;;;;;;30.50;12.30;;;;;;;9.02;42.37;94858.94;5091240;28;20027;-76
2021/03/31 07:04:28;;;;;;;23.88;11.98;;;;;;;9.22;41.80;94859.84;5089744;28;20040;-75
2021/03/31 07:07:08;;;;;;;25.80;12.70;;;;;;;9.39;41.38;94854.91;5089774;28;20110;-76
2021/03/31 07:09:35;;;;;;;24.08;12.25;;;;;;;9.55;41.54;94858.22;5089891;28;20035;-77
2021/03/31 07:12:01;;;;;;;37.92;11.38;;;;;;;9.67;41.05;94849.84;5091050;28;20028;-76
2021/03/31 07:14:28;;;;;;;26.17;10.98;;;;;;;9.79;40.79;94858.22;5089986;28;20028;-77
2021/03/31 07:16:55;;;;;;;25.13;10.70;;;;;;;9.91;39.68;94849.03;5089928;28;20035;-78
2021/03/31 07:19:21;;;;;;;19.60;11.02;;;;;;;10.03;39.31;94857.41;5089640;28;20028;-76
2021/03/31 07:21:48;;;;;;;23.90;11.50;;;;;;;10.10;39.63;94862.41;5089691;28;20028;-76
2021/03/31 07:24:15;;;;;;;22.85;10.98;;;;;;;10.17;39.31;94858.31;5089352;28;20028;-76
2021/03/31 07:26:45;;;;;;;18.52;9.90;;;;;;;10.24;38.69;94863.31;5090895;28;20020;-76
2021/03/31 07:29:12;;;;;;;16.85;9.52;;;;;;;10.34;38.79;94863.19;5090667;28;20039;-77
2021/03/31 07:31:43;;;;;;;24.67;11.63;;;;;;;10.41;38.74;94854.84;5089489;28;20181;-77
2021/03/31 07:34:28;;;;;;;27.40;11.23;;;;;;;10.59;38.20;94845.28;5088922;28;20159;-77
2021/03/31 07:36:57;;;;;;;19.52;9.57;;;;;;;10.70;37.96;94853.91;5090809;28;20082;-77
2021/03/31 07:39:29;;;;;;;22.08;10.82;;;;;;;10.88;37.66;94845.09;5088977;28;20054;-78
2021/03/31 07:41:56;;;;;;;28.90;9.98;;;;;;;11.02;37.15;94851.28;5090569;28;20036;-78
2021/03/31 07:44:28;;;;;;;28.10;10.68;;;;;;;11.19;36.62;94849.94;5088989;28;20028;-77
2021/03/31 07:46:55;;;;;;;20.73;10.23;;;;;;;11.35;36.02;94851.28;5089301;28;20132;-77
2021/03/31 07:49:23;;;;;;;24.38;8.98;;;;;;;11.51;36.08;94849.13;5088877;28;20028;-77
2021/03/31 07:52:02;;;;;;;22.30;10.65;;;;;;;11.69;35.66;94852.03;5089238;28;20376;-78
2021/03/31 07:54:29;;;;;;;19.40;9.73;;;;;;;11.77;34.96;94846.00;5087508;28;20043;-78
2021/03/31 07:56:59;;;;;;;19.88;8.98;;;;;;;11.84;34.71;94849.88;5089112;28;20475;-78
2021/03/31 07:59:27;;;;;;;16.05;9.18;;;;;;;11.91;34.46;94844.16;5089035;28;20034;-78
2021/03/31 08:01:57;;;;;;;20.33;8.88;;;;;;;12.04;34.14;94850.59;5089001;28;20032;-78
2021/03/31 08:04:30;;;;;;;14.95;8.77;;;;;;;12.21;34.45;94849.97;5088826;28;20024;-78
2021/03/31 08:06:56;;;;;;;22.20;11.82;;;;;;;12.31;33.92;94859.66;5089595;28;20046;-77
2021/03/31 08:09:30;;;;;;;17.55;9.55;;;;;;;12.45;33.74;94847.06;5088904;28;20028;-77
2021/03/31 08:12:06;;;;;;;22.25;10.23;;;;;;;12.53;33.86;94851.72;5088369;28;20115;-76
2021/03/31 08:14:31;;;;;;;21.08;9.55;;;;;;;12.57;33.70;94855.38;5088204;28;20081;-76
2021/03/31 08:17:05;;;;;;;22.20;9.68;;;;;;;12.58;33.15;94856.97;5088489;28;20441;-77
2021/03/31 08:19:33;;;;;;;18.10;10.25;;;;;;;12.53;33.96;94854.38;5090093;28;20473;-76
2021/03/31 08:22:18;;;;;;;19.55;10.77;;;;;;;12.65;33.52;94857.31;5089653;28;20081;-76
2021/03/31 08:24:52;;;;;;;20.42;9.88;;;;;;;12.70;33.02;94847.59;5088378;28;20032;-77
2021/03/31 08:27:18;;;;;;;23.77;9.88;;;;;;;12.78;33.26;94844.22;5088664;28;20031;-75
2021/03/31 08:29:48;;;;;;;24.67;11.38;;;;;;;12.84;32.76;94845.69;5087972;28;20028;-76
2021/03/31 08:32:14;;;;;;;17.45;10.32;;;;;;;12.88;32.81;94843.97;5087900;28;20043;-76
2021/03/31 08:34:42;;;;;;;21.48;9.60;;;;;;;12.98;32.91;94843.72;5087947;28;20044;-75
2021/03/31 08:37:19;;;;;;;20.42;8.85;;;;;;;13.11;32.76;94835.94;5087895;28;20402;-74
2021/03/31 08:39:45;;;;;;;22.17;9.25;;;;;;;13.17;32.36;94840.13;5088256;28;20115;-75
2021/03/31 08:42:10;;;;;;;19.60;8.30;;;;;;;13.25;31.82;94834.81;5087609;28;20173;-76
2021/03/31 08:44:39;;;;;;;21.55;9.55;;;;;;;13.25;32.54;94844.72;5089336;28;20032;-74
2021/03/31 08:47:26;;;;;;;19.60;10.75;;;;;;;13.31;32.22;94832.81;5089151;28;20028;-75
2021/03/31 08:49:59;;;;;;;16.38;9.55;;;;;;;13.31;31.81;94827.47;5089439;28;20032;-75
2021/03/31 08:52:31;;;;;;;23.95;10.07;;;;;;;13.28;31.97;94835.28;5088407;28;20027;-73
2021/03/31 08:54:56;;;;;;;28.75;9.85;;;;;;;13.28;32.07;94829.94;5087890;28;20402;-73
2021/03/31 08:57:24;;;;;;;21.58;9.65;;;;;;;13.31;31.76;94827.47;5087415;28;20031;-74
2021/03/31 08:59:53;;;;;;;20.33;9.50;;;;;;;13.27;31.95;94829.16;5089094;28;20074;-76
2021/03/31 09:02:24;;;;;;;15.40;9.50;;;;;;;13.25;31.93;94826.00;5087623;28;20031;-76
2021/03/31 09:04:50;;;;;;;18.02;10.02;;;;;;;13.17;31.58;94830.19;5088167;28;20076;-75
2021/03/31 09:07:16;;;;;;;17.40;9.68;;;;;;;13.11;31.73;94830.59;5089110;28;20098;-74
2021/03/31 09:09:44;;;;;;;15.38;8.85;;;;;;;13.00;31.96;94817.47;5087691;28;20059;-75
2021/03/31 09:12:12;;;;;;;18.80;8.80;;;;;;;12.94;32.05;94816.00;5089140;28;20491;-75
2021/03/31 09:14:43;;;;;;;19.70;10.07;;;;;;;12.87;32.15;94812.97;5087504;28;20141;-75
2021/03/31 09:17:20;;;;;;;20.77;8.73;;;;;;;12.87;32.59;94815.66;5087839;28;20487;-74
2021/03/31 09:19:47;;;;;;;22.75;11.10;;;;;;;12.84;32.49;94816.25;5088657;28;20448;-73
2021/03/31 09:22:18;;;;;;;21.02;10.13;;;;;;;12.81;32.28;94803.50;5089572;28;20080;-73
2021/03/31 09:24:49;;;;;;;19.17;11.93;;;;;;;12.80;32.42;94802.72;5088924;28;20185;-75
2021/03/31 09:27:19;;;;;;;21.83;9.35;;;;;;;12.82;32.22;94811.22;5087536;28;20050;-75
2021/03/31 09:29:46;;;;;;;18.98;9.48;;;;;;;12.75;32.61;94808.16;5087244;28;20020;-73
2021/03/31 09:32:17;;;;;;;19.17;9.68;;;;;;;12.70;32.51;94802.94;5088756;28;20038;-73
2021/03/31 09:34:43;;;;;;;22.07;10.70;;;;;;;12.49;32.93;94805.28;5087559;28;20105;-73
2021/03/31 09:37:14;;;;;;;25.13;9.48;;;;;;;12.44;33.27;94808.84;5089348;28;20020;-73
2021/03/31 09:39:55;;;;;;;15.38;9.57;;;;;;;12.45;32.79;94793.59;5087608;28;20411;-73
2021/03/31 09:42:31;;;;;;;19.60;9.48;;;;;;;12.42;33.30;94795.00;5087377;28;20497;-75
2021/03/31 09:44:58;;;;;;;31.75;11.00;;;;;;;12.41;33.28;94804.09;5087431;28;20115;-74
2021/03/31 09:47:26;;;;;;;23.85;12.07;;;;;;;12.39;33.30;94794.81;5088740;28;20031;-74
2021/03/31 09:49:53;;;;;;;18.67;10.05;;;;;;;12.45;33.49;94798.94;5088659;28;20422;-74
2021/03/31 09:52:39;;;;;;;17.23;9.40;;;;;;;12.37;33.06;94797.00;5088523;28;20033;-75
2021/03/31 09:55:14;;;;;;;19.17;9.80;;;;;;;12.38;32.79;94794.03;5086301;28;20040;-74
2021/03/31 09:57:41;;;;;;;22.20;10.00;;;;;;;12.38;33.15;94788.69;5087004;28;20035;-75
2021/03/31 10:00:10;;;;;;;19.10;9.57;;;;;;;12.45;33.07;94785.56;5086599;28;20031;-75
2021/03/31 10:02:36;;;;;;;18.38;8.73;;;;;;;12.56;33.04;94780.81;5088126;28;20032;-75
2021/03/31 10:05:16;;;;;;;23.33;9.32;;;;;;;12.65;33.32;94782.44;5086859;28;20471;-75
2021/03/31 10:07:42;;;;;;;20.85;9.55;;;;;;;12.72;32.79;94775.88;5086717;28;20024;-75
2021/03/31 10:10:09;;;;;;;22.02;9.70;;;;;;;12.70;32.59;94776.19;5086835;28;20097;-74
2021/03/31 10:12:35;;;;;;;31.58;17.80;;;;;;;12.75;33.00;94768.03;5086731;28;20028;-74
2021/03/31 10:15:05;;;;;;;28.88;13.65;;;;;;;12.78;32.16;94764.78;5086876;28;20341;-75
2021/03/31 10:17:32;;;;;;;35.55;10.68;;;;;;;12.83;32.51;94761.97;5087987;28;20024;-74
2021/03/31 10:20:14;;;;;;;24.10;10.77;;;;;;;12.91;33.18;94757.75;5086486;28;20036;-75
2021/03/31 10:22:40;;;;;;;19.67;10.33;;;;;;;13.12;32.33;94751.91;5088088;28;20032;-74
2021/03/31 10:25:07;;;;;;;18.30;10.25;;;;;;;13.26;32.44;94755.28;5086534;28;20024;-75
2021/03/31 10:27:45;;;;;;;30.73;16.33;;;;;;;13.29;31.66;94745.81;5088071;28;20089;-74
2021/03/31 10:30:30;;;;;;;19.70;10.82;;;;;;;13.26;31.23;94744.56;5088617;28;20055;-75
2021/03/31 10:32:57;;;;;;;18.27;8.90;;;;;;;13.09;31.96;94737.25;5090564;28;20116;-76
2021/03/31 10:35:38;;;;;;;26.35;10.98;;;;;;;13.19;31.49;94725.50;5090207;28;20036;-76
2021/03/31 10:38:06;;;;;;;19.50;8.93;;;;;;;13.08;31.83;94727.63;5092060;28;20127;-74
2021/03/31 10:49:11;;;;;;;18.52;9.10;;;;;;;13.50;31.78;94709.41;5091823;28;20417;-75
2021/03/31 10:54:15;;;;;;;18.80;9.60;;;;;;;13.78;31.24;94709.97;5091793;28;20032;-74
2021/03/31 10:56:49;;;;;;;17.23;9.52;;;;;;;13.94;30.63;94713.00;5091570;28;20072;-74
2021/03/31 10:59:14;;;;;;;18.17;8.13;;;;;;;13.67;29.82;94710.56;5091462;28;20384;-74
2021/03/31 11:01:40;;;;;;;14.82;7.40;;;;;;;13.67;29.84;94703.31;5091106;28;20028;-74
2021/03/31 11:04:05;;;;;;;13.35;7.45;;;;;;;13.85;30.30;94702.25;5091222;28;20020;-74
2021/03/31 11:06:32;;;;;;;18.17;8.57;;;;;;;14.03;28.49;94697.69;5091340;28;20026;-75
2021/03/31 11:08:58;;;;;;;19.65;8.82;;;;;;;14.20;28.82;94694.22;5088252;28;20121;-76
2021/03/31 11:11:23;;;;;;;18.48;8.93;;;;;;;14.27;28.85;94687.59;5089864;28;20436;-76
2021/03/31 11:13:48;;;;;;;17.35;7.55;;;;;;;13.99;28.66;94690.59;5089683;28;20040;-75
2021/03/31 11:16:15;;;;;;;13.40;8.13;;;;;;;14.20;29.48;94686.19;5089807;28;20472;-76
2021/03/31 11:18:57;;;;;;;20.52;9.13;;;;;;;14.40;29.01;94681.31;5090155;28;20391;-76
2021/03/31 11:26:35;;;;;;;17.58;8.70;;;;;;;14.92;28.56;94673.22;5090677;28;20120;-73
2021/03/31 11:29:01;;;;;;;11.45;7.25;;;;;;;15.07;27.65;94668.44;5090746;28;20488;-74
2021/03/31 11:31:26;;;;;;;26.23;8.93;;;;;;;15.02;27.70;94670.19;5089369;28;20051;-74
2021/03/31 11:33:53;;;;;;;31.63;8.00;;;;;;;15.20;27.22;94659.34;5089339;28;20054;-74
2021/03/31 11:36:19;;;;;;;12.85;7.07;;;;;;;15.08;26.45;94653.88;5089113;28;20554;-75
2021/03/31 11:38:44;;;;;;;12.15;7.43;;;;;;;15.29;26.96;94645.91;5089709;28;20063;-75
2021/03/31 11:41:10;;;;;;;10.93;6.75;;;;;;;15.50;26.68;94654.00;5088556;28;20081;-76
2021/03/31 11:43:35;;;;;;;15.57;6.65;;;;;;;15.51;26.31;94647.50;5089311;28;20450;-75
2021/03/31 11:46:01;;;;;;;15.00;6.38;;;;;;;15.69;27.08;94635.56;5089422;28;20369;-75
2021/03/31 11:48:26;;;;;;;14.13;6.65;;;;;;;15.88;26.66;94635.16;5088888;28;20497;-74
2021/03/31 11:50:52;;;;;;;15.23;7.47;;;;;;;15.89;24.98;94633.25;5090403;28;20404;-76
2021/03/31 11:53:17;;;;;;;12.02;6.07;;;;;;;15.77;25.22;94628.56;5090026;28;20016;-74